sensor_id;sensor_type;location;lat;lon;timestamp;P1;durP1;ratioP1;P2;durP2;ratioP2
45792;SDS011;31495;42.740;22.908;2023-08-06T00:00:55;5.07;;;1.95;;
45792;SDS011;31495;42.740;22.908;2023-08-06T00:01:55;2.90;;;1.75;;
45792;SDS011;31495;42.740;22.908;2023-08-06T00:02:54;5.05;;;2.20;;
45792;SDS011;31495;42.740;22.908;2023-08-06T00:03:54;4.85;;;1.67;;
45792;SDS011;31495;42.740;22.908;2023-08-06T00:04:53;3.05;;;1.17;;
45792;SDS011;31495;42.740;22.908;2023-08-06T00:05:52;3.45;;;1.35;;
45792;SDS011;31495;42.740;22.908;2023-08-06T00:06:52;1.85;;;1.13;;
45792;SDS011;31495;42.740;22.908;2023-08-06T00:07:51;2.28;;;1.27;;
45792;SDS011;31495;42.740;22.908;2023-08-06T00:08:51;2.65;;;1.23;;
45792;SDS011;31495;42.740;22.908;2023-08-06T00:09:50;4.10;;;1.05;;
45792;SDS011;31495;42.740;22.908;2023-08-06T00:10:50;3.47;;;1.73;;
45792;SDS011;31495;42.740;22.908;2023-08-06T00:11:49;1.77;;;0.85;;
45792;SDS011;31495;42.740;22.908;2023-08-06T00:12:49;1.52;;;0.77;;
45792;SDS011;31495;42.740;22.908;2023-08-06T00:13:48;4.93;;;1.30;;
45792;SDS011;31495;42.740;22.908;2023-08-06T00:14:51;5.38;;;1.73;;
45792;SDS011;31495;42.740;22.908;2023-08-06T00:15:51;2.42;;;1.30;;
45792;SDS011;31495;42.740;22.908;2023-08-06T00:16:50;3.75;;;1.55;;
45792;SDS011;31495;42.740;22.908;2023-08-06T00:17:50;4.25;;;1.52;;
45792;SDS011;31495;42.740;22.908;2023-08-06T00:18:49;3.35;;;1.10;;
45792;SDS011;31495;42.740;22.908;2023-08-06T00:19:49;1.80;;;0.70;;
45792;SDS011;31495;42.740;22.908;2023-08-06T00:20:48;1.17;;;0.60;;
45792;SDS011;31495;42.740;22.908;2023-08-06T00:21:48;4.50;;;1.00;;
45792;SDS011;31495;42.740;22.908;2023-08-06T00:22:47;2.85;;;0.80;;
45792;SDS011;31495;42.740;22.908;2023-08-06T00:23:47;2.85;;;0.90;;
45792;SDS011;31495;42.740;22.908;2023-08-06T00:24:46;2.30;;;0.98;;
45792;SDS011;31495;42.740;22.908;2023-08-06T00:25:46;1.67;;;0.90;;
45792;SDS011;31495;42.740;22.908;2023-08-06T00:26:45;2.67;;;1.10;;
45792;SDS011;31495;42.740;22.908;2023-08-06T00:27:45;1.70;;;0.80;;
45792;SDS011;31495;42.740;22.908;2023-08-06T00:28:44;1.88;;;0.82;;
45792;SDS011;31495;42.740;22.908;2023-08-06T00:29:44;3.83;;;0.82;;
45792;SDS011;31495;42.740;22.908;2023-08-06T00:30:43;1.85;;;0.70;;
45792;SDS011;31495;42.740;22.908;2023-08-06T00:31:42;1.63;;;0.90;;
45792;SDS011;31495;42.740;22.908;2023-08-06T00:32:42;3.08;;;1.00;;
45792;SDS011;31495;42.740;22.908;2023-08-06T00:33:41;1.92;;;0.68;;
45792;SDS011;31495;42.740;22.908;2023-08-06T00:34:41;2.08;;;0.80;;
45792;SDS011;31495;42.740;22.908;2023-08-06T00:35:41;2.35;;;0.60;;
45792;SDS011;31495;42.740;22.908;2023-08-06T00:36:40;1.88;;;0.60;;
45792;SDS011;31495;42.740;22.908;2023-08-06T00:37:40;1.33;;;0.60;;
45792;SDS011;31495;42.740;22.908;2023-08-06T00:38:39;1.85;;;0.50;;
45792;SDS011;31495;42.740;22.908;2023-08-06T00:39:39;1.60;;;0.70;;
45792;SDS011;31495;42.740;22.908;2023-08-06T00:40:38;1.10;;;0.50;;
45792;SDS011;31495;42.740;22.908;2023-08-06T00:41:38;3.55;;;0.85;;
45792;SDS011;31495;42.740;22.908;2023-08-06T00:42:37;2.08;;;0.88;;
45792;SDS011;31495;42.740;22.908;2023-08-06T00:43:37;1.05;;;0.50;;
45792;SDS011;31495;42.740;22.908;2023-08-06T00:44:36;0.98;;;0.68;;
45792;SDS011;31495;42.740;22.908;2023-08-06T00:45:37;1.27;;;0.57;;
45792;SDS011;31495;42.740;22.908;2023-08-06T00:46:37;1.77;;;0.90;;
45792;SDS011;31495;42.740;22.908;2023-08-06T00:47:36;1.48;;;0.75;;
45792;SDS011;31495;42.740;22.908;2023-08-06T00:48:37;1.70;;;0.93;;
45792;SDS011;31495;42.740;22.908;2023-08-06T00:49:37;2.28;;;0.80;;
45792;SDS011;31495;42.740;22.908;2023-08-06T00:50:37;2.40;;;0.82;;
45792;SDS011;31495;42.740;22.908;2023-08-06T00:51:37;2.78;;;0.90;;
45792;SDS011;31495;42.740;22.908;2023-08-06T00:52:37;2.65;;;0.60;;
45792;SDS011;31495;42.740;22.908;2023-08-06T00:53:39;3.90;;;1.27;;
45792;SDS011;31495;42.740;22.908;2023-08-06T00:54:39;3.08;;;1.48;;
45792;SDS011;31495;42.740;22.908;2023-08-06T00:55:39;6.75;;;1.73;;
45792;SDS011;31495;42.740;22.908;2023-08-06T00:56:39;3.80;;;1.58;;
45792;SDS011;31495;42.740;22.908;2023-08-06T00:57:41;4.07;;;1.85;;
45792;SDS011;31495;42.740;22.908;2023-08-06T00:58:40;5.03;;;1.58;;
45792;SDS011;31495;42.740;22.908;2023-08-06T00:59:40;3.03;;;1.20;;
45792;SDS011;31495;42.740;22.908;2023-08-06T01:00:40;2.30;;;1.23;;
45792;SDS011;31495;42.740;22.908;2023-08-06T01:01:39;3.30;;;1.88;;
45792;SDS011;31495;42.740;22.908;2023-08-06T01:02:38;3.58;;;1.27;;
45792;SDS011;31495;42.740;22.908;2023-08-06T01:03:38;1.83;;;1.02;;
45792;SDS011;31495;42.740;22.908;2023-08-06T01:04:38;2.75;;;0.90;;
45792;SDS011;31495;42.740;22.908;2023-08-06T01:05:37;2.45;;;1.02;;
45792;SDS011;31495;42.740;22.908;2023-08-06T01:09:06;3.72;;;1.55;;
45792;SDS011;31495;42.740;22.908;2023-08-06T01:10:29;9.23;;;2.63;;
45792;SDS011;31495;42.740;22.908;2023-08-06T01:11:48;7.88;;;2.90;;
45792;SDS011;31495;42.740;22.908;2023-08-06T01:13:03;4.63;;;2.45;;
45792;SDS011;31495;42.740;22.908;2023-08-06T01:14:12;4.50;;;2.63;;
45792;SDS011;31495;42.740;22.908;2023-08-06T01:15:19;6.05;;;2.65;;
45792;SDS011;31495;42.740;22.908;2023-08-06T01:16:31;6.60;;;2.60;;
45792;SDS011;31495;42.740;22.908;2023-08-06T01:17:32;3.85;;;2.25;;
45792;SDS011;31495;42.740;22.908;2023-08-06T01:18:33;4.72;;;2.53;;
45792;SDS011;31495;42.740;22.908;2023-08-06T01:19:32;5.68;;;3.35;;
45792;SDS011;31495;42.740;22.908;2023-08-06T01:20:32;3.92;;;1.98;;
45792;SDS011;31495;42.740;22.908;2023-08-06T01:21:31;3.67;;;1.88;;
45792;SDS011;31495;42.740;22.908;2023-08-06T01:22:30;3.60;;;1.70;;
45792;SDS011;31495;42.740;22.908;2023-08-06T01:23:30;3.72;;;1.65;;
45792;SDS011;31495;42.740;22.908;2023-08-06T01:24:29;3.30;;;2.05;;
45792;SDS011;31495;42.740;22.908;2023-08-06T01:25:30;2.83;;;1.30;;
45792;SDS011;31495;42.740;22.908;2023-08-06T01:26:38;3.25;;;1.92;;
45792;SDS011;31495;42.740;22.908;2023-08-06T01:27:47;3.10;;;1.85;;
45792;SDS011;31495;42.740;22.908;2023-08-06T01:28:52;2.58;;;1.08;;
45792;SDS011;31495;42.740;22.908;2023-08-06T01:30:16;3.75;;;1.73;;
45792;SDS011;31495;42.740;22.908;2023-08-06T01:31:21;3.22;;;1.55;;
45792;SDS011;31495;42.740;22.908;2023-08-06T01:32:23;2.45;;;1.52;;
45792;SDS011;31495;42.740;22.908;2023-08-06T01:33:23;3.58;;;1.38;;
45792;SDS011;31495;42.740;22.908;2023-08-06T01:34:25;2.55;;;1.27;;
45792;SDS011;31495;42.740;22.908;2023-08-06T01:35:28;2.38;;;1.50;;
45792;SDS011;31495;42.740;22.908;2023-08-06T01:36:29;3.85;;;1.13;;
45792;SDS011;31495;42.740;22.908;2023-08-06T01:37:29;2.20;;;1.05;;
45792;SDS011;31495;42.740;22.908;2023-08-06T01:38:29;2.28;;;1.50;;
45792;SDS011;31495;42.740;22.908;2023-08-06T01:39:30;3.05;;;1.52;;
45792;SDS011;31495;42.740;22.908;2023-08-06T01:40:32;3.35;;;1.55;;
45792;SDS011;31495;42.740;22.908;2023-08-06T01:41:33;3.10;;;1.58;;
45792;SDS011;31495;42.740;22.908;2023-08-06T01:42:32;3.55;;;1.92;;
45792;SDS011;31495;42.740;22.908;2023-08-06T01:43:31;3.65;;;2.13;;
45792;SDS011;31495;42.740;22.908;2023-08-06T01:44:31;5.45;;;2.63;;
45792;SDS011;31495;42.740;22.908;2023-08-06T01:45:31;4.97;;;2.40;;
45792;SDS011;31495;42.740;22.908;2023-08-06T01:46:30;2.58;;;2.03;;
45792;SDS011;31495;42.740;22.908;2023-08-06T01:47:30;2.70;;;1.80;;
45792;SDS011;31495;42.740;22.908;2023-08-06T01:48:29;2.83;;;1.55;;
45792;SDS011;31495;42.740;22.908;2023-08-06T01:49:28;6.93;;;3.95;;
45792;SDS011;31495;42.740;22.908;2023-08-06T01:50:28;7.53;;;5.18;;
45792;SDS011;31495;42.740;22.908;2023-08-06T01:51:27;6.55;;;4.20;;
45792;SDS011;31495;42.740;22.908;2023-08-06T01:52:27;7.40;;;4.57;;
45792;SDS011;31495;42.740;22.908;2023-08-06T01:53:27;6.65;;;4.38;;
45792;SDS011;31495;42.740;22.908;2023-08-06T01:54:26;5.65;;;3.63;;
45792;SDS011;31495;42.740;22.908;2023-08-06T01:55:26;11.57;;;3.88;;
45792;SDS011;31495;42.740;22.908;2023-08-06T01:57:27;6.82;;;3.45;;
45792;SDS011;31495;42.740;22.908;2023-08-06T01:58:27;4.80;;;3.60;;
45792;SDS011;31495;42.740;22.908;2023-08-06T01:59:27;10.98;;;3.97;;
45792;SDS011;31495;42.740;22.908;2023-08-06T02:00:26;5.65;;;3.38;;
45792;SDS011;31495;42.740;22.908;2023-08-06T02:02:27;6.68;;;3.97;;
45792;SDS011;31495;42.740;22.908;2023-08-06T02:03:26;7.47;;;3.70;;
45792;SDS011;31495;42.740;22.908;2023-08-06T02:04:26;5.78;;;3.88;;
45792;SDS011;31495;42.740;22.908;2023-08-06T02:05:25;6.25;;;3.13;;
45792;SDS011;31495;42.740;22.908;2023-08-06T02:06:25;5.30;;;3.20;;
45792;SDS011;31495;42.740;22.908;2023-08-06T02:07:24;5.20;;;2.90;;
45792;SDS011;31495;42.740;22.908;2023-08-06T02:08:24;4.15;;;2.97;;
45792;SDS011;31495;42.740;22.908;2023-08-06T02:09:23;2.85;;;1.92;;
45792;SDS011;31495;42.740;22.908;2023-08-06T02:10:22;3.47;;;1.60;;
45792;SDS011;31495;42.740;22.908;2023-08-06T02:11:22;3.47;;;1.77;;
45792;SDS011;31495;42.740;22.908;2023-08-06T02:12:21;3.88;;;2.50;;
45792;SDS011;31495;42.740;22.908;2023-08-06T02:13:21;3.80;;;2.33;;
45792;SDS011;31495;42.740;22.908;2023-08-06T02:14:20;3.03;;;1.52;;
45792;SDS011;31495;42.740;22.908;2023-08-06T02:15:19;5.25;;;2.08;;
45792;SDS011;31495;42.740;22.908;2023-08-06T02:16:19;3.65;;;1.60;;
45792;SDS011;31495;42.740;22.908;2023-08-06T02:17:18;4.10;;;1.33;;
45792;SDS011;31495;42.740;22.908;2023-08-06T02:18:18;2.58;;;1.50;;
45792;SDS011;31495;42.740;22.908;2023-08-06T02:19:17;3.47;;;2.00;;
45792;SDS011;31495;42.740;22.908;2023-08-06T02:20:17;3.45;;;1.77;;
45792;SDS011;31495;42.740;22.908;2023-08-06T02:21:16;4.22;;;1.70;;
45792;SDS011;31495;42.740;22.908;2023-08-06T02:22:15;2.72;;;1.60;;
45792;SDS011;31495;42.740;22.908;2023-08-06T02:23:15;3.05;;;1.67;;
45792;SDS011;31495;42.740;22.908;2023-08-06T02:24:14;3.90;;;1.75;;
45792;SDS011;31495;42.740;22.908;2023-08-06T02:25:14;4.65;;;1.77;;
45792;SDS011;31495;42.740;22.908;2023-08-06T02:26:13;2.60;;;1.70;;
45792;SDS011;31495;42.740;22.908;2023-08-06T02:27:13;2.97;;;1.42;;
45792;SDS011;31495;42.740;22.908;2023-08-06T02:28:12;2.33;;;1.63;;
45792;SDS011;31495;42.740;22.908;2023-08-06T02:29:11;2.85;;;1.90;;
45792;SDS011;31495;42.740;22.908;2023-08-06T02:30:11;3.08;;;2.00;;
45792;SDS011;31495;42.740;22.908;2023-08-06T02:31:10;2.97;;;1.80;;
45792;SDS011;31495;42.740;22.908;2023-08-06T02:32:10;2.50;;;1.65;;
45792;SDS011;31495;42.740;22.908;2023-08-06T02:33:09;3.10;;;1.80;;
45792;SDS011;31495;42.740;22.908;2023-08-06T02:34:09;2.63;;;1.83;;
45792;SDS011;31495;42.740;22.908;2023-08-06T02:35:08;3.25;;;1.60;;
45792;SDS011;31495;42.740;22.908;2023-08-06T02:36:07;3.08;;;1.95;;
45792;SDS011;31495;42.740;22.908;2023-08-06T02:37:07;2.78;;;1.83;;
45792;SDS011;31495;42.740;22.908;2023-08-06T02:38:07;2.22;;;1.60;;
45792;SDS011;31495;42.740;22.908;2023-08-06T02:39:06;7.07;;;2.05;;
45792;SDS011;31495;42.740;22.908;2023-08-06T02:40:06;3.83;;;2.17;;
45792;SDS011;31495;42.740;22.908;2023-08-06T02:41:05;5.88;;;2.10;;
45792;SDS011;31495;42.740;22.908;2023-08-06T02:42:06;3.30;;;1.95;;
45792;SDS011;31495;42.740;22.908;2023-08-06T02:43:07;2.63;;;1.55;;
45792;SDS011;31495;42.740;22.908;2023-08-06T02:44:06;3.80;;;1.50;;
45792;SDS011;31495;42.740;22.908;2023-08-06T02:45:06;2.05;;;1.20;;
45792;SDS011;31495;42.740;22.908;2023-08-06T02:46:05;2.65;;;1.20;;
45792;SDS011;31495;42.740;22.908;2023-08-06T02:47:05;3.97;;;1.48;;
45792;SDS011;31495;42.740;22.908;2023-08-06T02:48:05;3.80;;;1.50;;
45792;SDS011;31495;42.740;22.908;2023-08-06T02:49:05;2.70;;;1.27;;
45792;SDS011;31495;42.740;22.908;2023-08-06T02:50:05;2.30;;;1.30;;
45792;SDS011;31495;42.740;22.908;2023-08-06T02:51:05;2.55;;;1.42;;
45792;SDS011;31495;42.740;22.908;2023-08-06T02:52:04;3.28;;;2.03;;
45792;SDS011;31495;42.740;22.908;2023-08-06T02:53:04;4.13;;;1.73;;
45792;SDS011;31495;42.740;22.908;2023-08-06T02:54:04;3.20;;;1.88;;
45792;SDS011;31495;42.740;22.908;2023-08-06T02:55:04;5.18;;;1.85;;
45792;SDS011;31495;42.740;22.908;2023-08-06T02:56:04;3.25;;;2.03;;
45792;SDS011;31495;42.740;22.908;2023-08-06T02:57:04;3.45;;;2.22;;
45792;SDS011;31495;42.740;22.908;2023-08-06T02:58:04;4.07;;;2.00;;
45792;SDS011;31495;42.740;22.908;2023-08-06T02:59:03;5.28;;;2.67;;
45792;SDS011;31495;42.740;22.908;2023-08-06T03:00:03;3.97;;;2.20;;
45792;SDS011;31495;42.740;22.908;2023-08-06T03:01:04;3.63;;;2.60;;
45792;SDS011;31495;42.740;22.908;2023-08-06T03:02:05;4.05;;;2.30;;
45792;SDS011;31495;42.740;22.908;2023-08-06T03:03:05;3.78;;;2.30;;
45792;SDS011;31495;42.740;22.908;2023-08-06T03:04:04;4.68;;;2.83;;
45792;SDS011;31495;42.740;22.908;2023-08-06T03:05:04;9.77;;;3.20;;
45792;SDS011;31495;42.740;22.908;2023-08-06T03:06:05;4.82;;;3.33;;
45792;SDS011;31495;42.740;22.908;2023-08-06T03:07:04;8.45;;;3.28;;
45792;SDS011;31495;42.740;22.908;2023-08-06T03:08:04;4.30;;;3.42;;
45792;SDS011;31495;42.740;22.908;2023-08-06T03:09:03;6.80;;;3.45;;
45792;SDS011;31495;42.740;22.908;2023-08-06T03:10:03;4.13;;;3.15;;
45792;SDS011;31495;42.740;22.908;2023-08-06T03:11:02;4.80;;;3.13;;
45792;SDS011;31495;42.740;22.908;2023-08-06T03:12:02;7.85;;;3.45;;
45792;SDS011;31495;42.740;22.908;2023-08-06T03:13:01;4.90;;;3.20;;
45792;SDS011;31495;42.740;22.908;2023-08-06T03:14:01;4.93;;;3.28;;
45792;SDS011;31495;42.740;22.908;2023-08-06T03:15:00;4.97;;;3.40;;
45792;SDS011;31495;42.740;22.908;2023-08-06T03:16:00;6.07;;;2.80;;
45792;SDS011;31495;42.740;22.908;2023-08-06T03:17:01;4.50;;;2.92;;
45792;SDS011;31495;42.740;22.908;2023-08-06T03:18:00;4.82;;;2.90;;
45792;SDS011;31495;42.740;22.908;2023-08-06T03:19:00;6.65;;;3.33;;
45792;SDS011;31495;42.740;22.908;2023-08-06T03:20:00;7.82;;;3.20;;
45792;SDS011;31495;42.740;22.908;2023-08-06T03:20:59;5.25;;;3.10;;
45792;SDS011;31495;42.740;22.908;2023-08-06T03:21:58;7.18;;;4.10;;
45792;SDS011;31495;42.740;22.908;2023-08-06T03:22:58;5.00;;;3.40;;
45792;SDS011;31495;42.740;22.908;2023-08-06T03:23:57;5.20;;;3.65;;
45792;SDS011;31495;42.740;22.908;2023-08-06T03:24:57;5.30;;;3.55;;
45792;SDS011;31495;42.740;22.908;2023-08-06T03:25:56;5.32;;;3.55;;
45792;SDS011;31495;42.740;22.908;2023-08-06T03:27:01;5.80;;;4.13;;
45792;SDS011;31495;42.740;22.908;2023-08-06T03:28:00;8.57;;;3.55;;
45792;SDS011;31495;42.740;22.908;2023-08-06T03:29:00;5.88;;;3.78;;
45792;SDS011;31495;42.740;22.908;2023-08-06T03:29:59;5.50;;;3.78;;
45792;SDS011;31495;42.740;22.908;2023-08-06T03:31:00;6.07;;;4.03;;
45792;SDS011;31495;42.740;22.908;2023-08-06T03:32:01;7.82;;;3.83;;
45792;SDS011;31495;42.740;22.908;2023-08-06T03:33:01;4.53;;;3.42;;
45792;SDS011;31495;42.740;22.908;2023-08-06T03:34:00;5.43;;;3.03;;
45792;SDS011;31495;42.740;22.908;2023-08-06T03:34:59;4.82;;;3.00;;
45792;SDS011;31495;42.740;22.908;2023-08-06T03:35:59;5.20;;;1.88;;
45792;SDS011;31495;42.740;22.908;2023-08-06T03:36:58;3.55;;;1.85;;
45792;SDS011;31495;42.740;22.908;2023-08-06T03:37:58;3.67;;;2.03;;
45792;SDS011;31495;42.740;22.908;2023-08-06T03:38:57;3.63;;;1.75;;
45792;SDS011;31495;42.740;22.908;2023-08-06T03:39:56;5.82;;;1.90;;
45792;SDS011;31495;42.740;22.908;2023-08-06T03:40:56;2.95;;;1.70;;
45792;SDS011;31495;42.740;22.908;2023-08-06T03:41:55;3.67;;;2.78;;
45792;SDS011;31495;42.740;22.908;2023-08-06T03:42:55;4.40;;;2.75;;
45792;SDS011;31495;42.740;22.908;2023-08-06T03:43:54;4.13;;;2.78;;
45792;SDS011;31495;42.740;22.908;2023-08-06T03:44:54;5.05;;;3.13;;
45792;SDS011;31495;42.740;22.908;2023-08-06T03:45:53;4.88;;;3.42;;
45792;SDS011;31495;42.740;22.908;2023-08-06T03:46:52;4.95;;;3.22;;
45792;SDS011;31495;42.740;22.908;2023-08-06T03:47:52;5.30;;;3.25;;
45792;SDS011;31495;42.740;22.908;2023-08-06T03:48:52;4.93;;;3.08;;
45792;SDS011;31495;42.740;22.908;2023-08-06T03:49:51;4.53;;;3.40;;
45792;SDS011;31495;42.740;22.908;2023-08-06T03:50:51;5.55;;;3.25;;
45792;SDS011;31495;42.740;22.908;2023-08-06T03:51:50;5.30;;;3.33;;
45792;SDS011;31495;42.740;22.908;2023-08-06T03:52:49;3.92;;;2.67;;
45792;SDS011;31495;42.740;22.908;2023-08-06T03:53:49;6.13;;;2.83;;
45792;SDS011;31495;42.740;22.908;2023-08-06T03:54:48;3.50;;;2.63;;
45792;SDS011;31495;42.740;22.908;2023-08-06T03:55:48;4.97;;;3.45;;
45792;SDS011;31495;42.740;22.908;2023-08-06T03:56:47;4.10;;;2.30;;
45792;SDS011;31495;42.740;22.908;2023-08-06T03:57:46;3.72;;;2.83;;
45792;SDS011;31495;42.740;22.908;2023-08-06T03:58:46;4.05;;;2.80;;
45792;SDS011;31495;42.740;22.908;2023-08-06T03:59:45;3.67;;;2.38;;
45792;SDS011;31495;42.740;22.908;2023-08-06T04:00:45;4.78;;;3.03;;
45792;SDS011;31495;42.740;22.908;2023-08-06T04:01:44;3.28;;;2.70;;
45792;SDS011;31495;42.740;22.908;2023-08-06T04:02:44;5.43;;;3.50;;
45792;SDS011;31495;42.740;22.908;2023-08-06T04:03:43;6.50;;;3.65;;
45792;SDS011;31495;42.740;22.908;2023-08-06T04:04:42;6.25;;;3.40;;
45792;SDS011;31495;42.740;22.908;2023-08-06T04:05:42;5.28;;;3.45;;
45792;SDS011;31495;42.740;22.908;2023-08-06T04:06:42;6.35;;;4.28;;
45792;SDS011;31495;42.740;22.908;2023-08-06T04:07:41;6.10;;;4.00;;
45792;SDS011;31495;42.740;22.908;2023-08-06T04:08:41;5.88;;;3.83;;
45792;SDS011;31495;42.740;22.908;2023-08-06T04:09:53;5.80;;;3.65;;
45792;SDS011;31495;42.740;22.908;2023-08-06T04:10:53;4.85;;;2.95;;
45792;SDS011;31495;42.740;22.908;2023-08-06T04:11:52;5.13;;;3.90;;
45792;SDS011;31495;42.740;22.908;2023-08-06T04:12:52;4.82;;;3.53;;
45792;SDS011;31495;42.740;22.908;2023-08-06T04:13:51;5.00;;;3.50;;
45792;SDS011;31495;42.740;22.908;2023-08-06T04:14:51;4.05;;;2.97;;
45792;SDS011;31495;42.740;22.908;2023-08-06T04:15:51;6.15;;;3.85;;
45792;SDS011;31495;42.740;22.908;2023-08-06T04:16:51;4.55;;;3.20;;
45792;SDS011;31495;42.740;22.908;2023-08-06T04:17:50;3.83;;;2.97;;
45792;SDS011;31495;42.740;22.908;2023-08-06T04:18:49;4.05;;;3.00;;
45792;SDS011;31495;42.740;22.908;2023-08-06T04:19:50;4.97;;;3.40;;
45792;SDS011;31495;42.740;22.908;2023-08-06T04:20:50;5.35;;;3.78;;
45792;SDS011;31495;42.740;22.908;2023-08-06T04:21:51;4.50;;;3.28;;
45792;SDS011;31495;42.740;22.908;2023-08-06T04:22:53;6.53;;;3.88;;
45792;SDS011;31495;42.740;22.908;2023-08-06T04:23:53;7.85;;;3.70;;
45792;SDS011;31495;42.740;22.908;2023-08-06T04:24:53;5.65;;;3.95;;
45792;SDS011;31495;42.740;22.908;2023-08-06T04:25:55;6.03;;;2.97;;
45792;SDS011;31495;42.740;22.908;2023-08-06T04:26:56;4.20;;;2.75;;
45792;SDS011;31495;42.740;22.908;2023-08-06T04:27:55;4.35;;;3.38;;
45792;SDS011;31495;42.740;22.908;2023-08-06T04:28:55;5.28;;;2.78;;
45792;SDS011;31495;42.740;22.908;2023-08-06T04:29:54;3.58;;;2.72;;
45792;SDS011;31495;42.740;22.908;2023-08-06T04:30:54;8.23;;;3.22;;
45792;SDS011;31495;42.740;22.908;2023-08-06T04:31:53;4.05;;;2.97;;
45792;SDS011;31495;42.740;22.908;2023-08-06T04:32:53;4.72;;;2.97;;
45792;SDS011;31495;42.740;22.908;2023-08-06T04:33:52;3.00;;;2.50;;
45792;SDS011;31495;42.740;22.908;2023-08-06T04:34:51;3.25;;;2.28;;
45792;SDS011;31495;42.740;22.908;2023-08-06T04:35:54;6.97;;;2.38;;
45792;SDS011;31495;42.740;22.908;2023-08-06T04:36:58;3.67;;;2.40;;
45792;SDS011;31495;42.740;22.908;2023-08-06T04:37:57;3.60;;;2.17;;
45792;SDS011;31495;42.740;22.908;2023-08-06T04:38:57;3.38;;;2.60;;
45792;SDS011;31495;42.740;22.908;2023-08-06T04:39:56;3.13;;;2.28;;
45792;SDS011;31495;42.740;22.908;2023-08-06T04:40:56;5.00;;;2.83;;
45792;SDS011;31495;42.740;22.908;2023-08-06T04:41:55;3.95;;;3.08;;
45792;SDS011;31495;42.740;22.908;2023-08-06T04:42:56;3.80;;;2.67;;
45792;SDS011;31495;42.740;22.908;2023-08-06T04:43:56;4.82;;;3.17;;
45792;SDS011;31495;42.740;22.908;2023-08-06T04:44:56;4.68;;;3.40;;
45792;SDS011;31495;42.740;22.908;2023-08-06T04:45:55;5.32;;;3.75;;
45792;SDS011;31495;42.740;22.908;2023-08-06T04:46:55;5.13;;;3.65;;
45792;SDS011;31495;42.740;22.908;2023-08-06T04:47:54;6.55;;;3.45;;
45792;SDS011;31495;42.740;22.908;2023-08-06T04:48:53;5.68;;;4.13;;
45792;SDS011;31495;42.740;22.908;2023-08-06T04:49:53;6.97;;;3.83;;
45792;SDS011;31495;42.740;22.908;2023-08-06T04:50:53;4.35;;;3.47;;
45792;SDS011;31495;42.740;22.908;2023-08-06T04:51:53;6.68;;;3.50;;
45792;SDS011;31495;42.740;22.908;2023-08-06T04:52:53;7.70;;;4.57;;
45792;SDS011;31495;42.740;22.908;2023-08-06T04:53:52;8.07;;;4.25;;
45792;SDS011;31495;42.740;22.908;2023-08-06T04:54:51;7.22;;;4.53;;
45792;SDS011;31495;42.740;22.908;2023-08-06T04:55:51;6.10;;;3.90;;
45792;SDS011;31495;42.740;22.908;2023-08-06T04:56:51;8.05;;;4.65;;
45792;SDS011;31495;42.740;22.908;2023-08-06T04:57:50;5.97;;;4.30;;
45792;SDS011;31495;42.740;22.908;2023-08-06T04:58:50;6.15;;;4.32;;
45792;SDS011;31495;42.740;22.908;2023-08-06T04:59:49;6.70;;;4.93;;
45792;SDS011;31495;42.740;22.908;2023-08-06T05:00:49;9.25;;;4.93;;
45792;SDS011;31495;42.740;22.908;2023-08-06T05:01:48;10.63;;;5.80;;
45792;SDS011;31495;42.740;22.908;2023-08-06T05:02:47;7.82;;;5.15;;
45792;SDS011;31495;42.740;22.908;2023-08-06T05:03:47;8.20;;;4.97;;
45792;SDS011;31495;42.740;22.908;2023-08-06T05:04:47;7.45;;;4.28;;
45792;SDS011;31495;42.740;22.908;2023-08-06T05:05:46;6.65;;;4.00;;
45792;SDS011;31495;42.740;22.908;2023-08-06T05:06:45;6.78;;;4.03;;
45792;SDS011;31495;42.740;22.908;2023-08-06T05:07:47;8.13;;;3.65;;
45792;SDS011;31495;42.740;22.908;2023-08-06T05:08:48;6.00;;;3.38;;
45792;SDS011;31495;42.740;22.908;2023-08-06T05:09:47;5.38;;;3.63;;
45792;SDS011;31495;42.740;22.908;2023-08-06T05:10:46;5.47;;;3.53;;
45792;SDS011;31495;42.740;22.908;2023-08-06T05:11:46;4.55;;;3.50;;
45792;SDS011;31495;42.740;22.908;2023-08-06T05:12:47;4.13;;;3.03;;
45792;SDS011;31495;42.740;22.908;2023-08-06T05:13:46;4.78;;;3.33;;
45792;SDS011;31495;42.740;22.908;2023-08-06T05:14:46;4.30;;;3.05;;
45792;SDS011;31495;42.740;22.908;2023-08-06T05:15:45;4.47;;;3.33;;
45792;SDS011;31495;42.740;22.908;2023-08-06T05:16:45;4.82;;;3.47;;
45792;SDS011;31495;42.740;22.908;2023-08-06T05:17:45;8.68;;;3.45;;
45792;SDS011;31495;42.740;22.908;2023-08-06T05:18:44;5.13;;;3.00;;
45792;SDS011;31495;42.740;22.908;2023-08-06T05:19:44;4.63;;;3.10;;
45792;SDS011;31495;42.740;22.908;2023-08-06T05:20:44;5.20;;;3.13;;
45792;SDS011;31495;42.740;22.908;2023-08-06T05:21:43;6.18;;;3.50;;
45792;SDS011;31495;42.740;22.908;2023-08-06T05:22:43;6.00;;;3.15;;
45792;SDS011;31495;42.740;22.908;2023-08-06T05:23:43;4.60;;;2.92;;
45792;SDS011;31495;42.740;22.908;2023-08-06T05:24:43;4.75;;;3.08;;
45792;SDS011;31495;42.740;22.908;2023-08-06T05:25:42;6.20;;;4.20;;
45792;SDS011;31495;42.740;22.908;2023-08-06T05:26:41;4.03;;;2.78;;
45792;SDS011;31495;42.740;22.908;2023-08-06T05:27:41;6.95;;;2.95;;
45792;SDS011;31495;42.740;22.908;2023-08-06T05:28:41;5.13;;;2.72;;
45792;SDS011;31495;42.740;22.908;2023-08-06T05:29:40;5.03;;;3.05;;
45792;SDS011;31495;42.740;22.908;2023-08-06T05:30:40;4.35;;;2.90;;
45792;SDS011;31495;42.740;22.908;2023-08-06T05:31:40;5.32;;;3.08;;
45792;SDS011;31495;42.740;22.908;2023-08-06T05:32:39;4.45;;;3.17;;
45792;SDS011;31495;42.740;22.908;2023-08-06T05:33:39;6.85;;;3.15;;
45792;SDS011;31495;42.740;22.908;2023-08-06T05:34:38;5.18;;;3.00;;
45792;SDS011;31495;42.740;22.908;2023-08-06T05:35:40;6.32;;;3.13;;
45792;SDS011;31495;42.740;22.908;2023-08-06T05:36:40;4.97;;;3.00;;
45792;SDS011;31495;42.740;22.908;2023-08-06T05:37:39;4.68;;;2.60;;
45792;SDS011;31495;42.740;22.908;2023-08-06T05:38:39;4.88;;;2.90;;
45792;SDS011;31495;42.740;22.908;2023-08-06T05:39:38;4.53;;;2.70;;
45792;SDS011;31495;42.740;22.908;2023-08-06T05:40:38;3.90;;;2.67;;
45792;SDS011;31495;42.740;22.908;2023-08-06T05:41:37;4.00;;;2.55;;
45792;SDS011;31495;42.740;22.908;2023-08-06T05:42:36;6.53;;;3.03;;
45792;SDS011;31495;42.740;22.908;2023-08-06T05:43:36;4.47;;;2.88;;
45792;SDS011;31495;42.740;22.908;2023-08-06T05:44:35;4.43;;;2.70;;
45792;SDS011;31495;42.740;22.908;2023-08-06T05:45:35;4.38;;;3.00;;
45792;SDS011;31495;42.740;22.908;2023-08-06T05:46:34;5.15;;;2.85;;
45792;SDS011;31495;42.740;22.908;2023-08-06T05:47:34;5.63;;;2.72;;
45792;SDS011;31495;42.740;22.908;2023-08-06T05:48:33;4.13;;;2.20;;
45792;SDS011;31495;42.740;22.908;2023-08-06T05:49:33;3.55;;;2.45;;
45792;SDS011;31495;42.740;22.908;2023-08-06T05:50:32;3.70;;;2.30;;
45792;SDS011;31495;42.740;22.908;2023-08-06T05:51:32;4.38;;;2.75;;
45792;SDS011;31495;42.740;22.908;2023-08-06T05:52:31;3.63;;;2.33;;
45792;SDS011;31495;42.740;22.908;2023-08-06T05:53:30;3.83;;;2.47;;
45792;SDS011;31495;42.740;22.908;2023-08-06T05:54:30;3.88;;;2.53;;
45792;SDS011;31495;42.740;22.908;2023-08-06T05:55:29;3.15;;;2.30;;
45792;SDS011;31495;42.740;22.908;2023-08-06T05:56:30;4.53;;;2.58;;
45792;SDS011;31495;42.740;22.908;2023-08-06T05:57:30;3.35;;;2.60;;
45792;SDS011;31495;42.740;22.908;2023-08-06T05:58:29;3.95;;;2.30;;
45792;SDS011;31495;42.740;22.908;2023-08-06T05:59:29;3.70;;;2.33;;
45792;SDS011;31495;42.740;22.908;2023-08-06T06:00:29;3.08;;;1.95;;
45792;SDS011;31495;42.740;22.908;2023-08-06T06:01:29;5.63;;;2.33;;